View from home
Forecast from Yr Norsk

 

Here is the weather forecast for Austad/Fjell. First a detailed graph showing the forecast hour-by-hour. Then follows a forecast for the next 10 days.All forecasts are updated regulary.

Weather forecast is built on data from yr.no, delivered by Norwegian Meteorological Institute and NRK.

NB: The units in the first chart are metrical!

 

Meteogram for Austad/Fjell

 

Date
Time
Fc
Precip
Temp
Hum
Wind (gust)
 
Press
2023.02.08 23:00 Cloud 37.0°F 86.9% From south-southwest 13.2mph (30.9mph) 1,018.5hPa
  00:00 Cloud 37.0°F 86.3% From south-southwest 10.7mph (28.4mph) 1,017.3hPa
2023.02.09 01:00 Cloud 36.9°F 84.9% From south-southwest 12.3mph (26.8mph) 1,015.7hPa
  02:00 Cloud 36.5°F 84.3% From south-southwest 11.9mph (27.3mph) 1,013.9hPa
  03:00 Cloud 36.3°F 85.3% From south-southwest 12.8mph (28.0mph) 1,011.9hPa
  04:00 Cloud 36.5°F 85.8% From south-southwest 15.9mph (33.6mph) 1,010.3hPa
  05:00 Cloud 37.2°F 83.9% From south-southwest 14.3mph (33.8mph) 1,009.7hPa
  06:00 Cloud 38.5°F 81.1% From southwest 11.6mph (30.6mph) 1,009.9hPa
  07:00 Cloud 38.7°F 76.8% From west-southwest 11.0mph (25.9mph) 1,010.2hPa
  08:00 PartlyCloud 37.6°F 69.2% From west-southwest 10.7mph (25.5mph) 1,010.7hPa
  09:00 Sun 36.1°F 70.2% From west-southwest 10.3mph (23.7mph) 1,010.5hPa
  10:00 Sun 37.6°F 59.6% From west-southwest 13.2mph (29.1mph) 1,010.7hPa
  11:00 Sun 38.7°F 58.5% From southwest 12.1mph (28.6mph) 1,010.3hPa
  12:00 PartlyCloud 39.4°F 58.9% From southwest 11.2mph (26.6mph) 1,010.1hPa
  13:00 Sun 39.9°F 60.0% From southwest 11.4mph (25.9mph) 1,009.7hPa
  14:00 LightCloud 39.2°F 65.5% From south-southwest 8.7mph (24.4mph) 1,009.1hPa
  15:00 PartlyCloud 39.9°F 59.1% From southwest 10.3mph (22.1mph) 1,008.2hPa
  16:00 Sun 39.6°F 58.9% From southwest 13.9mph (30.0mph) 1,007.0hPa
  17:00 LightCloud 0.00 - 0.03 in 38.3°F 68.3% From south-southwest 17.2mph (37.4mph) 1,006.3hPa
  18:00 DrizzleSun 0.00 - 0.05 in 37.0°F 79.3% From southwest 15.0mph (36.9mph) 1,005.9hPa
  19:00 Cloud 0.00 - 0.01 in 36.1°F 78.1% From west 9.2mph (31.3mph) 1,007.7hPa
  20:00 Cloud 34.9°F 47.1% From west 13.0mph (28.0mph) 1,009.0hPa
  21:00 Sun 32.7°F 46.8% From west 10.5mph (28.0mph) 1,011.1hPa
  22:00 Sun 30.7°F 53.4% From west 10.7mph (22.8mph) 1,012.5hPa
  23:00 LightCloud 31.1°F 57.9% From west 11.0mph (26.8mph) 1,013.6hPa
  00:00 Sun 30.9°F 54.5% From west 11.9mph (24.8mph) 1,014.5hPa
2023.02.10 01:00 Sun 30.0°F 50.5% From west 13.6mph (29.3mph) 1,015.5hPa
  02:00 Sun 29.3°F 52.4% From west 15.2mph (32.0mph) 1,016.6hPa
  03:00 Sun 28.9°F 51.9% From west 13.2mph (31.8mph) 1,017.8hPa
  04:00 Sun 29.5°F 50.8% From west-northwest 12.8mph (28.9mph) 1,019.0hPa
  05:00 Sun 28.0°F 56.9% From west-northwest 8.7mph (27.3mph) 1,020.0hPa
  06:00 Sun 26.8°F 60.0% From west-northwest 8.5mph (19.2mph) 1,020.6hPa
  07:00 Sun 28.6°F 54.1% From west 13.0mph (27.3mph) 1,021.0hPa
  08:00 Sun 28.6°F 52.0% From west 12.5mph (28.6mph) 1,021.7hPa
  09:00 PartlyCloud 28.6°F 51.7% From west 11.6mph (25.7mph) 1,022.0hPa
  10:00 Cloud 29.3°F 52.4% From west 9.4mph (23.9mph) 1,021.6hPa
  11:00 Cloud 30.4°F 52.4% From west 6.7mph (18.8mph) 1,021.0hPa
  12:00 Cloud 30.6°F 58.1% From west-southwest 2.0mph (13.9mph) 1,020.2hPa
  13:00 Cloud 0.00 - 0.01 in 30.4°F 64.8% From south 3.6mph (7.6mph) 1,018.7hPa
  14:00 Cloud 0.00 - 0.02 in 30.2°F 75.4% From south-southeast 5.8mph (12.3mph) 1,016.5hPa
  15:00 Snow 0.00 - 0.02 in 30.0°F 89.2% From south-southeast 5.8mph (13.2mph) 1,014.1hPa
  16:00 Snow 0.00 - 0.03 in 29.8°F 92.8% From south 4.3mph (14.3mph) 1,011.7hPa
  17:00 LightSnow 0.00 - 0.03 in 30.2°F 95.3% From west 2.2mph (9.6mph) 1,009.1hPa
  18:00 Cloud 0.00 - 0.02 in 31.3°F 94.0% From west-southwest 3.8mph (8.1mph) 1,006.2hPa
  19:00 Fog 33.1°F 96.9% From southwest 5.1mph (11.2mph) 1,004.5hPa
  20:00 PartlyCloud 33.3°F 95.9% From south-southwest 6.3mph (13.4mph) 1,002.8hPa
  21:00 LightCloud 31.5°F 97.3% From southwest 3.8mph (12.5mph) 1,002.0hPa
  22:00 Sun 31.8°F 93.9% From southwest 5.6mph (11.9mph) 1,002.1hPa
  23:00 Sun 31.6°F 93.1% From south-southwest 4.9mph (11.2mph) 1,002.3hPa
  00:00 Sun 32.2°F 90.4% From south-southwest 5.4mph (11.0mph) 1,002.5hPa
2023.02.11 01:00 PartlyCloud 35.1°F 82.0% From west-southwest 5.6mph (15.2mph) 1,003.0hPa
  02:00 Sun 39.4°F 75.6% From west-northwest 10.3mph (22.4mph) 1,003.7hPa
  03:00 PartlyCloud 43.0°F 68.5% From west-northwest 11.6mph (25.9mph) 1,004.6hPa
  04:00 PartlyCloud 43.9°F 67.1% From west-northwest 11.4mph (26.6mph) 1,005.6hPa
  05:00 PartlyCloud 43.0°F 68.3% From west-northwest 10.7mph (25.3mph) 1,006.6hPa
  06:00 PartlyCloud 41.5°F 69.2% From west-northwest 9.6mph (24.2mph) 1,007.6hPa
  07:00 PartlyCloud 39.7°F 70.5% From west-northwest 6.9mph (21.5mph) 1,008.5hPa
  13:00 Cloud 44.1°F 65.5% From west 5.6mph ( mph) 1,013.0hPa
  19:00 Cloud 35.6°F 82.8% From west 4.7mph ( mph) 1,020.4hPa
  01:00 Cloud 36.9°F 86.4% From west 5.8mph ( mph) 1,020.5hPa
2023.02.12 07:00 Cloud 38.7°F 85.4% From west-southwest 6.0mph ( mph) 1,020.5hPa
  13:00 Cloud 44.8°F 68.3% From southwest 6.7mph ( mph) 1,020.2hPa
  19:00 Cloud 38.7°F 79.8% From southwest 6.5mph ( mph) 1,018.7hPa
  01:00 Cloud 36.7°F 86.0% From southwest 5.8mph ( mph) 1,019.2hPa
2023.02.13 07:00 Cloud 33.8°F 88.6% From west-southwest 6.0mph ( mph) 1,019.1hPa
  13:00 Cloud 44.2°F 67.1% From west-southwest 6.3mph ( mph) 1,022.8hPa
  19:00 Cloud 38.8°F 79.8% From west-northwest 5.1mph ( mph) 1,026.1hPa
  01:00 Cloud 33.4°F 89.4% From west-northwest 3.6mph ( mph) 1,029.8hPa
2023.02.14 07:00 Cloud 32.0°F 91.7% From west-northwest 2.7mph ( mph) 1,030.5hPa
  13:00 Cloud 39.7°F 72.8% From west-southwest 2.5mph ( mph) 1,030.3hPa
  19:00 PartlyCloud 33.8°F 89.3% From south-southeast 2.0mph ( mph) 1,029.0hPa
  01:00 PartlyCloud 32.2°F 95.6% From west-northwest 2.5mph ( mph) 1,027.3hPa
2023.02.15 07:00 Cloud 29.7°F 92.9% From northwest 2.7mph ( mph) 1,025.2hPa
  13:00 Cloud 34.3°F 87.9% From south 3.1mph ( mph) 1,024.1hPa
  19:00 Cloud 33.4°F 93.8% From south 3.6mph ( mph) 1,021.6hPa
  01:00 Cloud 33.6°F 94.6% From west-southwest 4.0mph ( mph) 1,020.2hPa
2023.02.16 07:00 Cloud 32.2°F 94.3% From west 4.5mph ( mph) 1,019.1hPa
  13:00 Cloud 38.7°F 78.2% From south-southwest 3.8mph ( mph) 1,020.0hPa
  19:00 Cloud 34.2°F 88.5% From south-southwest 4.5mph ( mph) 1,018.2hPa
  01:00 Cloud 30.4°F 92.6% From west-northwest 3.6mph ( mph) 1,023.3hPa
2023.02.17 07:00 PartlyCloud 31.6°F 93.7% From southwest 4.3mph ( mph) 1,017.8hPa
  13:00 Cloud 39.4°F 77.1% From south 5.8mph ( mph) 1,018.1hPa
  19:00 Cloud 37.6°F 84.0% From south-southwest 7.2mph ( mph) 1,016.5hPa
  01:00 PartlyCloud 36.9°F 90.9% From south-southwest 5.6mph ( mph) 1,017.8hPa
2023.02.18 07:00 Cloud 34.9°F 91.5% From southwest 5.8mph ( mph) 1,016.7hPa
  13:00 Cloud 40.8°F 73.8% From south-southwest 6.0mph ( mph) 1,016.5hPa
  19:00 Cloud 36.3°F 77.5% From south-southwest 6.7mph ( mph) 1,018.6hPa
Facebook Facebook Messenger Instagram E-mail